sensor_id;sensor_type;location;lat;lon;timestamp;pressure;altitude;pressure_sealevel;temperature;humidity
21300;BME280;10809;49.476;11.016;2022-10-19T05:14:54;99209.66;;;13.14;72.18
21300;BME280;10809;49.476;11.016;2022-10-19T05:17:25;99208.97;;;13.10;71.95
21300;BME280;10809;49.476;11.016;2022-10-19T05:19:55;99202.94;;;13.07;71.91
21300;BME280;10809;49.476;11.016;2022-10-19T05:22:26;99212.88;;;13.03;71.96
21300;BME280;10809;49.476;11.016;2022-10-19T05:24:57;99215.69;;;13.00;72.08
21300;BME280;10809;49.476;11.016;2022-10-19T05:27:27;99214.94;;;12.98;71.95
21300;BME280;10809;49.476;11.016;2022-10-19T05:29:57;99220.41;;;12.95;72.34
21300;BME280;10809;49.476;11.016;2022-10-19T05:32:28;99222.25;;;12.93;72.34
21300;BME280;10809;49.476;11.016;2022-10-19T05:34:58;99224.91;;;12.93;72.41
21300;BME280;10809;49.476;11.016;2022-10-19T05:37:28;99219.69;;;12.91;72.37
21300;BME280;10809;49.476;11.016;2022-10-19T05:39:59;99226.00;;;12.89;72.27
21300;BME280;10809;49.476;11.016;2022-10-19T05:42:29;99218.97;;;12.88;72.24
21300;BME280;10809;49.476;11.016;2022-10-19T05:45:00;99220.81;;;12.86;72.47
21300;BME280;10809;49.476;11.016;2022-10-19T05:47:30;99219.13;;;12.85;72.32
21300;BME280;10809;49.476;11.016;2022-10-19T05:50:01;99223.56;;;12.84;72.12
21300;BME280;10809;49.476;11.016;2022-10-19T05:52:31;99224.59;;;12.82;72.01
21300;BME280;10809;49.476;11.016;2022-10-19T05:55:02;99232.72;;;12.79;71.98
21300;BME280;10809;49.476;11.016;2022-10-19T05:57:32;99229.41;;;12.74;71.95
21300;BME280;10809;49.476;11.016;2022-10-19T06:00:03;99234.97;;;12.69;71.97
21300;BME280;10809;49.476;11.016;2022-10-19T06:02:42;99240.44;;;12.66;71.94
21300;BME280;10809;49.476;11.016;2022-10-19T06:05:12;99227.44;;;12.60;71.87
21300;BME280;10809;49.476;11.016;2022-10-19T06:07:42;99241.75;;;12.58;71.95
21300;BME280;10809;49.476;11.016;2022-10-19T06:10:13;99238.44;;;12.53;72.07
21300;BME280;10809;49.476;11.016;2022-10-19T06:12:43;99238.59;;;12.50;72.05
21300;BME280;10809;49.476;11.016;2022-10-19T06:15:13;99244.06;;;12.47;72.54
21300;BME280;10809;49.476;11.016;2022-10-19T06:17:44;99245.00;;;12.46;72.35
21300;BME280;10809;49.476;11.016;2022-10-19T06:20:14;99244.94;;;12.47;72.54
21300;BME280;10809;49.476;11.016;2022-10-19T06:22:45;99249.28;;;12.48;72.82
21300;BME280;10809;49.476;11.016;2022-10-19T06:25:15;99247.50;;;12.49;72.69
21300;BME280;10809;49.476;11.016;2022-10-19T06:27:45;99252.75;;;12.50;72.81
21300;BME280;10809;49.476;11.016;2022-10-19T06:30:16;99255.41;;;12.50;72.71
21300;BME280;10809;49.476;11.016;2022-10-19T06:32:46;99256.19;;;12.52;72.38
21300;BME280;10809;49.476;11.016;2022-10-19T06:35:17;99256.13;;;12.54;72.50
21300;BME280;10809;49.476;11.016;2022-10-19T06:37:47;99258.84;;;12.52;72.51
21300;BME280;10809;49.476;11.016;2022-10-19T06:40:18;99259.78;;;12.51;72.53
21300;BME280;10809;49.476;11.016;2022-10-19T06:42:48;99259.84;;;12.50;72.61
21300;BME280;10809;49.476;11.016;2022-10-19T06:45:18;99258.13;;;12.49;72.65
21300;BME280;10809;49.476;11.016;2022-10-19T06:47:49;99257.25;;;12.48;72.58
21300;BME280;10809;49.476;11.016;2022-10-19T06:50:19;99260.00;;;12.47;72.60
21300;BME280;10809;49.476;11.016;2022-10-19T06:52:50;99250.31;;;12.46;72.77
21300;BME280;10809;49.476;11.016;2022-10-19T06:55:20;99252.16;;;12.44;72.56
21300;BME280;10809;49.476;11.016;2022-10-19T06:57:50;99253.13;;;12.43;73.00
21300;BME280;10809;49.476;11.016;2022-10-19T07:00:21;99251.41;;;12.42;72.59
21300;BME280;10809;49.476;11.016;2022-10-19T07:02:51;99254.06;;;12.42;73.10
21300;BME280;10809;49.476;11.016;2022-10-19T07:05:21;99262.88;;;12.42;73.07
21300;BME280;10809;49.476;11.016;2022-10-19T07:07:52;99259.38;;;12.42;73.11
21300;BME280;10809;49.476;11.016;2022-10-19T07:10:22;99263.75;;;12.43;72.93
21300;BME280;10809;49.476;11.016;2022-10-19T07:12:55;99261.00;;;12.44;72.84
21300;BME280;10809;49.476;11.016;2022-10-19T07:15:25;99267.19;;;12.45;72.82
21300;BME280;10809;49.476;11.016;2022-10-19T07:17:55;99270.63;;;12.47;73.10
21300;BME280;10809;49.476;11.016;2022-10-19T07:20:26;99272.38;;;12.48;73.01
21300;BME280;10809;49.476;11.016;2022-10-19T07:22:56;99281.09;;;12.50;73.31
21300;BME280;10809;49.476;11.016;2022-10-19T07:25:26;99276.59;;;12.52;72.96
21300;BME280;10809;49.476;11.016;2022-10-19T07:27:57;99277.38;;;12.54;72.88
21300;BME280;10809;49.476;11.016;2022-10-19T07:30:27;99287.06;;;12.55;73.02
21300;BME280;10809;49.476;11.016;2022-10-19T07:32:58;99288.69;;;12.57;72.61
21300;BME280;10809;49.476;11.016;2022-10-19T07:35:28;99281.59;;;12.58;72.75
21300;BME280;10809;49.476;11.016;2022-10-19T07:37:58;99289.56;;;12.58;73.20
21300;BME280;10809;49.476;11.016;2022-10-19T07:40:29;99290.38;;;12.60;72.71
21300;BME280;10809;49.476;11.016;2022-10-19T07:42:59;99293.03;;;12.60;72.71
21300;BME280;10809;49.476;11.016;2022-10-19T07:45:31;99292.16;;;12.59;72.86
21300;BME280;10809;49.476;11.016;2022-10-19T07:48:01;99290.38;;;12.60;72.83
21300;BME280;10809;49.476;11.016;2022-10-19T07:50:32;99285.91;;;12.60;72.71
21300;BME280;10809;49.476;11.016;2022-10-19T07:53:02;99287.72;;;12.60;72.71
21300;BME280;10809;49.476;11.016;2022-10-19T07:55:34;99289.56;;;12.58;72.70
21300;BME280;10809;49.476;11.016;2022-10-19T07:58:04;99293.25;;;12.55;72.17
21300;BME280;10809;49.476;11.016;2022-10-19T08:00:35;99294.31;;;12.51;72.33
21300;BME280;10809;49.476;11.016;2022-10-19T08:03:05;99298.06;;;12.47;72.23
21300;BME280;10809;49.476;11.016;2022-10-19T08:05:36;99290.31;;;12.43;72.43
21300;BME280;10809;49.476;11.016;2022-10-19T08:08:06;99295.69;;;12.41;73.02
21300;BME280;10809;49.476;11.016;2022-10-19T08:10:36;99299.22;;;12.42;73.15
21300;BME280;10809;49.476;11.016;2022-10-19T08:13:07;99297.34;;;12.44;73.21
21300;BME280;10809;49.476;11.016;2022-10-19T08:15:37;99306.03;;;12.47;73.13
21300;BME280;10809;49.476;11.016;2022-10-19T08:18:07;99292.66;;;12.49;73.57
21300;BME280;10809;49.476;11.016;2022-10-19T08:20:42;99296.13;;;12.51;73.51
21300;BME280;10809;49.476;11.016;2022-10-19T08:23:13;99298.72;;;12.52;73.17
21300;BME280;10809;49.476;11.016;2022-10-19T08:25:43;99299.41;;;12.56;72.93
21300;BME280;10809;49.476;11.016;2022-10-19T08:28:14;99297.63;;;12.56;73.19
21300;BME280;10809;49.476;11.016;2022-10-19T08:30:44;99297.53;;;12.58;73.13
21300;BME280;10809;49.476;11.016;2022-10-19T08:33:15;99289.56;;;12.58;73.07
21300;BME280;10809;49.476;11.016;2022-10-19T08:35:46;99296.66;;;12.57;72.97
21300;BME280;10809;49.476;11.016;2022-10-19T08:38:16;99295.84;;;12.57;73.06
21300;BME280;10809;49.476;11.016;2022-10-19T08:40:46;99295.03;;;12.55;72.75
21300;BME280;10809;49.476;11.016;2022-10-19T08:43:30;99290.75;;;12.52;72.87
21300;BME280;10809;49.476;11.016;2022-10-19T08:46:25;99286.50;;;12.48;72.95
21300;BME280;10809;49.476;11.016;2022-10-19T08:48:59;99288.38;;;12.46;72.91
21300;BME280;10809;49.476;11.016;2022-10-19T08:51:36;99285.06;;;12.41;73.26
21300;BME280;10809;49.476;11.016;2022-10-19T08:54:15;99286.13;;;12.37;72.77
21300;BME280;10809;49.476;11.016;2022-10-19T08:56:52;99288.81;;;12.36;73.43
21300;BME280;10809;49.476;11.016;2022-10-19T09:04:48;99298.50;;;12.38;73.43
21300;BME280;10809;49.476;11.016;2022-10-19T09:07:30;99311.81;;;12.37;73.54
21300;BME280;10809;49.476;11.016;2022-10-19T09:13:01;99318.97;;;12.35;73.29
21300;BME280;10809;49.476;11.016;2022-10-19T09:15:40;99310.13;;;12.34;73.37
21300;BME280;10809;49.476;11.016;2022-10-19T09:18:18;99306.56;;;12.35;73.51
21300;BME280;10809;49.476;11.016;2022-10-19T09:20:57;99304.72;;;12.37;73.62
21300;BME280;10809;49.476;11.016;2022-10-19T09:23:46;99307.25;;;12.40;73.68
21300;BME280;10809;49.476;11.016;2022-10-19T09:26:22;99314.13;;;12.44;73.60
21300;BME280;10809;49.476;11.016;2022-10-19T09:29:21;99318.44;;;12.47;73.53
21300;BME280;10809;49.476;11.016;2022-10-19T09:31:55;99324.41;;;12.52;73.95
21300;BME280;10809;49.476;11.016;2022-10-19T09:34:35;99320.66;;;12.56;73.79
21300;BME280;10809;49.476;11.016;2022-10-19T09:37:05;99321.31;;;12.61;73.52
21300;BME280;10809;49.476;11.016;2022-10-19T09:39:36;99317.56;;;12.65;73.90
21300;BME280;10809;49.476;11.016;2022-10-19T09:42:25;99320.88;;;12.70;74.00
21300;BME280;10809;49.476;11.016;2022-10-19T09:45:00;99324.19;;;12.75;73.79
21300;BME280;10809;49.476;11.016;2022-10-19T09:50:24;99324.72;;;12.81;73.46
21300;BME280;10809;49.476;11.016;2022-10-19T09:52:58;99313.09;;;12.84;73.83
21300;BME280;10809;49.476;11.016;2022-10-19T09:55:37;99312.00;;;12.88;74.14
21300;BME280;10809;49.476;11.016;2022-10-19T09:58:16;99310.97;;;12.90;73.47
21300;BME280;10809;49.476;11.016;2022-10-19T10:00:52;99316.19;;;12.93;73.32
21300;BME280;10809;49.476;11.016;2022-10-19T10:06:05;99310.00;;;12.93;73.81
21300;BME280;10809;49.476;11.016;2022-10-19T10:08:38;99301.88;;;12.96;73.86
21300;BME280;10809;49.476;11.016;2022-10-19T10:11:37;99307.91;;;12.99;73.87
21300;BME280;10809;49.476;11.016;2022-10-19T10:16:53;99304.63;;;13.12;74.27
21300;BME280;10809;49.476;11.016;2022-10-19T10:19:29;99295.47;;;13.17;74.12
21300;BME280;10809;49.476;11.016;2022-10-19T10:22:02;99302.13;;;13.26;74.31
21300;BME280;10809;49.476;11.016;2022-10-19T10:24:33;99286.78;;;13.31;74.34
21300;BME280;10809;49.476;11.016;2022-10-19T10:27:05;99287.34;;;13.37;74.38
21300;BME280;10809;49.476;11.016;2022-10-19T10:29:36;99290.53;;;13.45;74.29
21300;BME280;10809;49.476;11.016;2022-10-19T10:32:16;99295.53;;;13.51;74.05
21300;BME280;10809;49.476;11.016;2022-10-19T10:34:56;99282.72;;;13.58;73.84
21300;BME280;10809;49.476;11.016;2022-10-19T10:37:32;99291.44;;;13.61;73.33
21300;BME280;10809;49.476;11.016;2022-10-19T10:40:18;99278.91;;;13.63;73.12
21300;BME280;10809;49.476;11.016;2022-10-19T10:42:49;99281.41;;;13.66;73.23
21300;BME280;10809;49.476;11.016;2022-10-19T10:45:28;99272.41;;;13.69;73.24
21300;BME280;10809;49.476;11.016;2022-10-19T10:48:16;99271.38;;;13.71;73.34
21300;BME280;10809;49.476;11.016;2022-10-19T10:50:48;99269.50;;;13.73;73.16
21300;BME280;10809;49.476;11.016;2022-10-19T10:53:37;99264.00;;;13.76;73.19
21300;BME280;10809;49.476;11.016;2022-10-19T10:56:28;99266.50;;;13.79;72.97
21300;BME280;10809;49.476;11.016;2022-10-19T10:59:12;99260.22;;;13.80;72.79
21300;BME280;10809;49.476;11.016;2022-10-19T11:02:03;99261.97;;;13.81;72.12
21300;BME280;10809;49.476;11.016;2022-10-19T11:04:46;99256.88;;;13.77;71.87
21300;BME280;10809;49.476;11.016;2022-10-19T11:07:22;99252.66;;;13.73;71.42
21300;BME280;10809;49.476;11.016;2022-10-19T11:09:57;99245.88;;;13.67;71.79
21300;BME280;10809;49.476;11.016;2022-10-19T11:12:52;99244.31;;;13.63;71.96
21300;BME280;10809;49.476;11.016;2022-10-19T11:15:52;99247.13;;;13.60;71.98
21300;BME280;10809;49.476;11.016;2022-10-19T11:21:10;99242.97;;;13.55;72.35
21300;BME280;10809;49.476;11.016;2022-10-19T11:24:04;99240.31;;;13.55;72.10
21300;BME280;10809;49.476;11.016;2022-10-19T11:32:34;99237.09;;;13.65;72.73
21300;BME280;10809;49.476;11.016;2022-10-19T11:46:21;99221.13;;;13.98;72.22
21300;BME280;10809;49.476;11.016;2022-10-19T11:49:10;99216.22;;;14.06;72.42
21300;BME280;10809;49.476;11.016;2022-10-19T11:52:00;99206.88;;;14.14;72.73
21300;BME280;10809;49.476;11.016;2022-10-19T11:54:55;99207.22;;;14.24;72.67
21300;BME280;10809;49.476;11.016;2022-10-19T12:22:28;99160.09;;;15.15;69.41
21300;BME280;10809;49.476;11.016;2022-10-19T12:25:00;99160.28;;;15.12;68.95
21300;BME280;10809;49.476;11.016;2022-10-19T12:27:34;99160.56;;;15.07;69.38
21300;BME280;10809;49.476;11.016;2022-10-19T12:30:19;99159.03;;;15.03;69.58
21300;BME280;10809;49.476;11.016;2022-10-19T12:32:57;99152.16;;;14.99;69.47
21300;BME280;10809;49.476;11.016;2022-10-19T12:41:30;99148.06;;;14.94;69.76
21300;BME280;10809;49.476;11.016;2022-10-19T12:46:40;99138.13;;;14.96;70.32
21300;BME280;10809;49.476;11.016;2022-10-19T12:49:34;99131.59;;;15.01;70.53
21300;BME280;10809;49.476;11.016;2022-10-19T12:52:06;99123.13;;;15.09;70.47
21300;BME280;10809;49.476;11.016;2022-10-19T12:54:38;99120.94;;;15.15;69.99
21300;BME280;10809;49.476;11.016;2022-10-19T12:57:25;99123.03;;;15.24;70.04
21300;BME280;10809;49.476;11.016;2022-10-19T13:00:20;99120.75;;;15.32;70.04
21300;BME280;10809;49.476;11.016;2022-10-19T13:03:20;99111.25;;;15.42;69.98
21300;BME280;10809;49.476;11.016;2022-10-19T13:05:56;99108.00;;;15.51;69.58
21300;BME280;10809;49.476;11.016;2022-10-19T13:08:31;99100.50;;;15.58;69.38
21300;BME280;10809;49.476;11.016;2022-10-19T13:11:05;99100.75;;;15.67;68.82
21300;BME280;10809;49.476;11.016;2022-10-19T13:13:52;99090.53;;;15.74;69.05
21300;BME280;10809;49.476;11.016;2022-10-19T13:32:43;99086.13;;;16.13;68.30
21300;BME280;10809;49.476;11.016;2022-10-19T13:43:21;99086.34;;;16.37;67.23
21300;BME280;10809;49.476;11.016;2022-10-19T13:46:14;99085.22;;;16.41;67.33
21300;BME280;10809;49.476;11.016;2022-10-19T13:54:39;99071.19;;;16.37;66.46
21300;BME280;10809;49.476;11.016;2022-10-19T13:57:46;99073.41;;;16.31;66.49
21300;BME280;10809;49.476;11.016;2022-10-19T14:00:27;99063.09;;;16.25;66.07
21300;BME280;10809;49.476;11.016;2022-10-19T14:03:23;99058.03;;;16.20;66.44
21300;BME280;10809;49.476;11.016;2022-10-19T14:06:20;99056.53;;;16.16;66.48
21300;BME280;10809;49.476;11.016;2022-10-19T14:11:40;99062.97;;;16.14;65.93
21300;BME280;10809;49.476;11.016;2022-10-19T14:14:14;99058.34;;;16.16;66.54
21300;BME280;10809;49.476;11.016;2022-10-19T14:19:28;99044.56;;;16.22;66.62
21300;BME280;10809;49.476;11.016;2022-10-19T14:22:00;99046.88;;;16.28;66.89
21300;BME280;10809;49.476;11.016;2022-10-19T14:24:35;99039.31;;;16.34;66.58
21300;BME280;10809;49.476;11.016;2022-10-19T14:27:06;99035.34;;;16.40;65.80
21300;BME280;10809;49.476;11.016;2022-10-19T14:29:48;99024.25;;;16.46;65.79
21300;BME280;10809;49.476;11.016;2022-10-19T14:32:23;99029.22;;;16.52;65.35
21300;BME280;10809;49.476;11.016;2022-10-19T14:35:03;99022.69;;;16.56;65.35
21300;BME280;10809;49.476;11.016;2022-10-19T14:37:35;99016.25;;;16.59;64.31
21300;BME280;10809;49.476;11.016;2022-10-19T14:40:21;99015.94;;;16.63;65.12
21300;BME280;10809;49.476;11.016;2022-10-19T14:42:51;99021.84;;;16.68;64.20
21300;BME280;10809;49.476;11.016;2022-10-19T14:45:23;99018.09;;;16.71;64.15
21300;BME280;10809;49.476;11.016;2022-10-19T14:48:06;99013.59;;;16.71;64.17
21300;BME280;10809;49.476;11.016;2022-10-19T14:50:50;99015.50;;;16.69;63.49
21300;BME280;10809;49.476;11.016;2022-10-19T14:53:39;99019.38;;;16.65;63.96
21300;BME280;10809;49.476;11.016;2022-10-19T14:56:15;99012.53;;;16.61;63.27
21300;BME280;10809;49.476;11.016;2022-10-19T14:58:52;99012.94;;;16.55;63.52
21300;BME280;10809;49.476;11.016;2022-10-19T15:01:24;99018.69;;;16.49;63.00
21300;BME280;10809;49.476;11.016;2022-10-19T15:03:55;99016.44;;;16.43;63.09
21300;BME280;10809;49.476;11.016;2022-10-19T15:06:34;99010.66;;;16.36;63.89
21300;BME280;10809;49.476;11.016;2022-10-19T15:09:23;99015.56;;;16.30;63.54
21300;BME280;10809;49.476;11.016;2022-10-19T15:12:06;99018.50;;;16.25;63.70
21300;BME280;10809;49.476;11.016;2022-10-19T15:14:37;99011.78;;;16.20;63.26
21300;BME280;10809;49.476;11.016;2022-10-19T15:17:24;99014.75;;;16.15;64.02
21300;BME280;10809;49.476;11.016;2022-10-19T15:19:56;99016.78;;;16.12;63.53
21300;BME280;10809;49.476;11.016;2022-10-19T15:27:38;99005.16;;;15.99;63.58
21300;BME280;10809;49.476;11.016;2022-10-19T15:35:37;98996.94;;;15.89;64.09
21300;BME280;10809;49.476;11.016;2022-10-19T15:38:24;98990.81;;;15.87;64.34
21300;BME280;10809;49.476;11.016;2022-10-19T15:40:58;98995.50;;;15.84;63.90
21300;BME280;10809;49.476;11.016;2022-10-19T15:43:52;98983.31;;;15.80;64.26
21300;BME280;10809;49.476;11.016;2022-10-19T15:46:35;98988.00;;;15.76;63.62
21300;BME280;10809;49.476;11.016;2022-10-19T15:51:46;98984.31;;;15.65;63.76
21300;BME280;10809;49.476;11.016;2022-10-19T15:54:18;98984.63;;;15.60;63.77
21300;BME280;10809;49.476;11.016;2022-10-19T15:56:51;98991.22;;;15.55;63.78
21300;BME280;10809;49.476;11.016;2022-10-19T15:59:21;98995.13;;;15.49;63.92
21300;BME280;10809;49.476;11.016;2022-10-19T16:01:52;98983.97;;;15.43;63.87
21300;BME280;10809;49.476;11.016;2022-10-19T16:04:23;98985.31;;;15.36;64.02
21300;BME280;10809;49.476;11.016;2022-10-19T16:06:53;98979.41;;;15.31;63.65
21300;BME280;10809;49.476;11.016;2022-10-19T16:09:24;98976.19;;;15.26;63.99
21300;BME280;10809;49.476;11.016;2022-10-19T16:11:54;98973.16;;;15.18;64.22
21300;BME280;10809;49.476;11.016;2022-10-19T16:14:26;98975.25;;;15.13;63.95
21300;BME280;10809;49.476;11.016;2022-10-19T16:16:57;98980.97;;;15.07;63.97
21300;BME280;10809;49.476;11.016;2022-10-19T16:19:27;98976.03;;;15.01;64.17
21300;BME280;10809;49.476;11.016;2022-10-19T16:21:58;98970.19;;;14.94;64.37
21300;BME280;10809;49.476;11.016;2022-10-19T16:24:28;98976.78;;;14.89;64.14
21300;BME280;10809;49.476;11.016;2022-10-19T16:26:58;98970.88;;;14.84;64.17
21300;BME280;10809;49.476;11.016;2022-10-19T16:29:29;98969.47;;;14.78;64.38
21300;BME280;10809;49.476;11.016;2022-10-19T16:31:59;98976.88;;;14.73;64.35
21300;BME280;10809;49.476;11.016;2022-10-19T16:34:30;98968.41;;;14.66;64.47
21300;BME280;10809;49.476;11.016;2022-10-19T16:37:00;98979.38;;;14.62;64.18
21300;BME280;10809;49.476;11.016;2022-10-19T16:39:31;98975.25;;;14.56;64.56
21300;BME280;10809;49.476;11.016;2022-10-19T16:42:01;98980.03;;;14.51;64.80
21300;BME280;10809;49.476;11.016;2022-10-19T16:44:32;98984.75;;;14.46;64.35
21300;BME280;10809;49.476;11.016;2022-10-19T16:47:02;98989.47;;;14.41;64.75
21300;BME280;10809;49.476;11.016;2022-10-19T16:49:33;98992.50;;;14.35;64.83
21300;BME280;10809;49.476;11.016;2022-10-19T16:52:03;98995.44;;;14.31;64.75
21300;BME280;10809;49.476;11.016;2022-10-19T16:54:35;98998.38;;;14.26;64.58
21300;BME280;10809;49.476;11.016;2022-10-19T16:57:05;98992.47;;;14.21;64.60
21300;BME280;10809;49.476;11.016;2022-10-19T16:59:35;98996.25;;;14.17;64.85
21300;BME280;10809;49.476;11.016;2022-10-19T17:02:06;98999.19;;;14.13;64.81
21300;BME280;10809;49.476;11.016;2022-10-19T17:04:36;98999.47;;;14.08;64.95
21300;BME280;10809;49.476;11.016;2022-10-19T17:07:07;98999.66;;;14.05;65.26
21300;BME280;10809;49.476;11.016;2022-10-19T17:09:38;98990.97;;;14.02;65.17
21300;BME280;10809;49.476;11.016;2022-10-19T17:12:09;98989.34;;;13.99;65.10
21300;BME280;10809;49.476;11.016;2022-10-19T17:14:40;98985.19;;;13.95;65.03
21300;BME280;10809;49.476;11.016;2022-10-19T17:17:11;98991.50;;;13.93;64.87
21300;BME280;10809;49.476;11.016;2022-10-19T17:19:42;98992.56;;;13.90;65.05
21300;BME280;10809;49.476;11.016;2022-10-19T17:22:12;98989.13;;;13.88;65.07
21300;BME280;10809;49.476;11.016;2022-10-19T17:24:42;98991.00;;;13.86;64.96
21300;BME280;10809;49.476;11.016;2022-10-19T17:27:15;98989.38;;;13.84;65.25
21300;BME280;10809;49.476;11.016;2022-10-19T17:29:45;98987.69;;;13.83;64.92
21300;BME280;10809;49.476;11.016;2022-10-19T17:32:16;98988.69;;;13.80;65.21
21300;BME280;10809;49.476;11.016;2022-10-19T17:34:46;98990.59;;;13.78;64.93
21300;BME280;10809;49.476;11.016;2022-10-19T17:37:16;98989.84;;;13.76;64.99
21300;BME280;10809;49.476;11.016;2022-10-19T17:39:49;98994.38;;;13.74;65.19
21300;BME280;10809;49.476;11.016;2022-10-19T17:42:19;98999.88;;;13.71;64.90
21300;BME280;10809;49.476;11.016;2022-10-19T17:44:52;98999.97;;;13.70;65.03
21300;BME280;10809;49.476;11.016;2022-10-19T17:47:23;98997.47;;;13.67;65.08
21300;BME280;10809;49.476;11.016;2022-10-19T17:49:53;98992.25;;;13.65;64.85
21300;BME280;10809;49.476;11.016;2022-10-19T17:52:23;98995.06;;;13.62;64.94
21300;BME280;10809;49.476;11.016;2022-10-19T17:54:54;98985.47;;;13.60;65.16
21300;BME280;10809;49.476;11.016;2022-10-19T17:57:24;98988.22;;;13.58;65.01
21300;BME280;10809;49.476;11.016;2022-10-19T17:59:54;98993.72;;;13.55;64.90
21300;BME280;10809;49.476;11.016;2022-10-19T18:02:25;98996.56;;;13.52;64.90
21300;BME280;10809;49.476;11.016;2022-10-19T18:04:55;98999.38;;;13.49;65.03
21300;BME280;10809;49.476;11.016;2022-10-19T18:07:25;98991.59;;;13.46;64.74
21300;BME280;10809;49.476;11.016;2022-10-19T18:09:56;98993.50;;;13.43;64.97
21300;BME280;10809;49.476;11.016;2022-10-19T18:12:26;98984.84;;;13.39;65.22
21300;BME280;10809;49.476;11.016;2022-10-19T18:14:56;98981.50;;;13.36;65.04
21300;BME280;10809;49.476;11.016;2022-10-19T18:17:27;98989.66;;;13.33;64.99
21300;BME280;10809;49.476;11.016;2022-10-19T18:19:57;98993.34;;;13.30;64.91
21300;BME280;10809;49.476;11.016;2022-10-19T18:22:27;98993.50;;;13.27;65.22
21300;BME280;10809;49.476;11.016;2022-10-19T18:24:58;98991.09;;;13.23;65.03
21300;BME280;10809;49.476;11.016;2022-10-19T18:27:28;98994.88;;;13.19;65.08
21300;BME280;10809;49.476;11.016;2022-10-19T18:29:58;98993.25;;;13.16;65.11
21300;BME280;10809;49.476;11.016;2022-10-19T18:32:29;98988.94;;;13.14;64.78
21300;BME280;10809;49.476;11.016;2022-10-19T18:34:59;98986.53;;;13.09;64.76
21300;BME280;10809;49.476;11.016;2022-10-19T18:37:29;98988.44;;;13.07;65.02
21300;BME280;10809;49.476;11.016;2022-10-19T18:40:00;98992.19;;;13.03;64.94
21300;BME280;10809;49.476;11.016;2022-10-19T18:42:30;98987.91;;;13.00;64.97
21300;BME280;10809;49.476;11.016;2022-10-19T18:45:01;98995.97;;;12.99;64.95
21300;BME280;10809;49.476;11.016;2022-10-19T18:47:32;98996.22;;;12.94;64.83
21300;BME280;10809;49.476;11.016;2022-10-19T18:50:02;98991.94;;;12.92;64.65
21300;BME280;10809;49.476;11.016;2022-10-19T18:52:33;98994.72;;;12.89;65.05
21300;BME280;10809;49.476;11.016;2022-10-19T18:55:06;98990.44;;;12.86;64.73
21300;BME280;10809;49.476;11.016;2022-10-19T18:57:36;98992.31;;;12.84;64.89
21300;BME280;10809;49.476;11.016;2022-10-19T19:00:07;98996.03;;;12.82;64.94
21300;BME280;10809;49.476;11.016;2022-10-19T19:02:38;98988.22;;;12.79;64.65
21300;BME280;10809;49.476;11.016;2022-10-19T19:05:08;98992.75;;;12.77;64.72
21300;BME280;10809;49.476;11.016;2022-10-19T19:07:39;98984.94;;;12.74;64.54
21300;BME280;10809;49.476;11.016;2022-10-19T19:10:09;98983.31;;;12.71;64.48
21300;BME280;10809;49.476;11.016;2022-10-19T19:12:41;98981.69;;;12.69;64.50
21300;BME280;10809;49.476;11.016;2022-10-19T19:15:11;98984.59;;;12.64;64.65
21300;BME280;10809;49.476;11.016;2022-10-19T19:17:42;98967.94;;;12.61;64.47
21300;BME280;10809;49.476;11.016;2022-10-19T19:20:12;98976.16;;;12.56;64.56
21300;BME280;10809;49.476;11.016;2022-10-19T19:22:42;98979.84;;;12.54;64.49
21300;BME280;10809;49.476;11.016;2022-10-19T19:25:13;98986.16;;;12.51;64.33
21300;BME280;10809;49.476;11.016;2022-10-19T19:27:43;98979.28;;;12.47;64.06
21300;BME280;10809;49.476;11.016;2022-10-19T19:30:13;98977.66;;;12.45;64.44
21300;BME280;10809;49.476;11.016;2022-10-19T19:32:44;98976.97;;;12.41;64.26
21300;BME280;10809;49.476;11.016;2022-10-19T19:35:14;98975.31;;;12.39;64.19
21300;BME280;10809;49.476;11.016;2022-10-19T19:37:45;98979.03;;;12.35;64.32
21300;BME280;10809;49.476;11.016;2022-10-19T19:40:15;98972.94;;;12.33;64.25
21300;BME280;10809;49.476;11.016;2022-10-19T19:42:45;98974.03;;;12.29;64.28
21300;BME280;10809;49.476;11.016;2022-10-19T19:45:16;98976.84;;;12.26;64.41
21300;BME280;10809;49.476;11.016;2022-10-19T19:47:46;98977.03;;;12.23;63.88
21300;BME280;10809;49.476;11.016;2022-10-19T19:50:16;98970.16;;;12.19;64.20
21300;BME280;10809;49.476;11.016;2022-10-19T19:52:47;98972.03;;;12.17;64.25
21300;BME280;10809;49.476;11.016;2022-10-19T19:55:17;98972.19;;;12.14;64.14
21300;BME280;10809;49.476;11.016;2022-10-19T19:57:48;98973.28;;;12.10;64.08
21300;BME280;10809;49.476;11.016;2022-10-19T20:00:20;98967.19;;;12.08;64.20
21300;BME280;10809;49.476;11.016;2022-10-19T20:02:54;98969.13;;;12.04;64.04
21300;BME280;10809;49.476;11.016;2022-10-19T20:05:25;98966.63;;;12.01;63.94
21300;BME280;10809;49.476;11.016;2022-10-19T20:07:56;98961.47;;;11.98;64.18
21300;BME280;10809;49.476;11.016;2022-10-19T20:10:26;98971.25;;;11.98;64.09
21300;BME280;10809;49.476;11.016;2022-10-19T20:12:57;98966.09;;;11.95;64.32
21300;BME280;10809;49.476;11.016;2022-10-19T20:15:27;98967.97;;;11.93;64.10
21300;BME280;10809;49.476;11.016;2022-10-19T20:17:57;98966.25;;;11.92;64.05
21300;BME280;10809;49.476;11.016;2022-10-19T20:20:28;98971.66;;;11.90;64.05
21300;BME280;10809;49.476;11.016;2022-10-19T20:22:58;98979.66;;;11.89;63.90
21300;BME280;10809;49.476;11.016;2022-10-19T20:25:28;98971.78;;;11.87;63.88
21300;BME280;10809;49.476;11.016;2022-10-19T20:27:59;98963.06;;;11.85;63.95
21300;BME280;10809;49.476;11.016;2022-10-19T20:30:30;98971.09;;;11.84;64.07
21300;BME280;10809;49.476;11.016;2022-10-19T20:33:00;98963.19;;;11.82;63.91
21300;BME280;10809;49.476;11.016;2022-10-19T20:35:30;98963.34;;;11.79;63.74
21300;BME280;10809;49.476;11.016;2022-10-19T20:38:01;98972.16;;;11.80;63.90